Time;durP1;ratioP1;P1;durP2;ratioP2;P2;SDS_P1;SDS_P2;PMS_P1;PMS_P2;Temp;Humidity;BMP_temperature;BMP_pressure;BME280_temperature;BME280_humidity;BME280_pressure;Samples;Min_cycle;Max_cycle;Signal;HPM_P1;HPM_P2
2022/02/15 00:00:21;;;;;;;68.72;36.42;;;;;;;-0.05;73.73;95247.53;5085426;28;20036;-66
2022/02/15 00:02:47;;;;;;;47.72;27.25;;;;;;;-0.05;73.47;95244.97;5085944;28;20505;-67
2022/02/15 00:05:13;;;;;;;38.47;22.25;;;;;;;-0.08;73.01;95250.19;5084913;28;20039;-66
2022/02/15 00:07:38;;;;;;;39.45;21.75;;;;;;;-0.17;73.47;95253.03;5086740;28;20031;-66
2022/02/15 00:10:05;;;;;;;28.67;16.95;;;;;;;-0.18;73.64;95241.16;5083127;28;20047;-67
2022/02/15 00:12:31;;;;;;;30.40;17.63;;;;;;;-0.21;74.30;95243.81;5088908;28;20105;-66
2022/02/15 00:14:56;;;;;;;36.17;19.13;;;;;;;-0.17;74.45;95245.38;5066258;28;20090;-66
2022/02/15 00:17:21;;;;;;;39.25;19.27;;;;;;;-0.04;74.78;95245.78;5081688;28;20383;-66
2022/02/15 00:19:47;;;;;;;37.72;18.67;;;;;;;-0.07;73.97;95245.91;5083718;28;20027;-66
2022/02/15 00:22:13;;;;;;;34.60;18.17;;;;;;;-0.13;73.67;95241.84;5085160;28;20016;-66
2022/02/15 00:24:39;;;;;;;29.95;17.02;;;;;;;-0.07;74.24;95241.63;5087657;28;20044;-66
2022/02/15 00:27:04;;;;;;;28.65;17.27;;;;;;;0.01;74.95;95238.00;5070136;28;20034;-66
2022/02/15 00:29:30;;;;;;;31.75;17.80;;;;;;;0.04;74.76;95235.31;5084035;28;20024;-66
2022/02/15 00:31:55;;;;;;;34.28;17.75;;;;;;;0.09;75.56;95230.88;5086587;28;20028;-66
2022/02/15 00:34:20;;;;;;;31.42;18.35;;;;;;;0.25;76.08;95244.75;5067947;28;20067;-66
2022/02/15 00:36:46;;;;;;;29.60;17.20;;;;;;;0.22;75.21;95232.09;5086517;28;20035;-66
2022/02/15 00:39:11;;;;;;;33.58;18.00;;;;;;;0.26;75.39;95231.13;5084106;28;20047;-66
2022/02/15 00:41:37;;;;;;;30.80;19.00;;;;;;;0.24;75.35;95227.78;5087676;28;20489;-66
2022/02/15 00:44:02;;;;;;;33.17;17.83;;;;;;;0.25;75.20;95231.16;5084811;28;20035;-66
2022/02/15 00:46:28;;;;;;;31.05;18.25;;;;;;;0.25;75.69;95231.97;5083429;28;20032;-66
2022/02/15 00:48:53;;;;;;;36.47;18.75;;;;;;;0.20;75.80;95223.69;5086707;28;20028;-68
2022/02/15 00:51:19;;;;;;;31.98;18.27;;;;;;;0.30;75.61;95232.66;5085512;28;20455;-66
2022/02/15 00:53:44;;;;;;;32.40;19.80;;;;;;;0.30;75.85;95230.09;5086937;28;20545;-66
2022/02/15 00:56:09;;;;;;;36.90;19.58;;;;;;;0.36;75.12;95226.50;5086777;28;20478;-66
2022/02/15 00:58:35;;;;;;;35.13;18.98;;;;;;;0.40;75.02;95218.66;5063562;28;20028;-66
2022/02/15 01:01:00;;;;;;;35.13;19.48;;;;;;;0.41;74.55;95217.75;5084411;28;20036;-66
2022/02/15 01:03:26;;;;;;;31.95;18.83;;;;;;;0.47;74.43;95216.69;5085894;28;20025;-66
2022/02/15 01:05:51;;;;;;;32.03;19.33;;;;;;;0.29;74.98;95202.88;5080939;28;20048;-66
2022/02/15 01:08:17;;;;;;;31.85;18.42;;;;;;;0.38;74.94;95187.22;5080645;28;20032;-67
2022/02/15 01:10:42;;;;;;;39.83;19.20;;;;;;;0.45;74.36;95195.50;5085139;28;20031;-66
2022/02/15 01:13:08;;;;;;;34.50;19.30;;;;;;;0.47;74.15;95201.38;5051503;28;20036;-66
2022/02/15 01:15:33;;;;;;;35.22;19.80;;;;;;;0.47;73.85;95205.66;5069155;28;20125;-66
2022/02/15 01:17:59;;;;;;;37.53;18.77;;;;;;;0.36;73.60;95181.34;5084228;28;20467;-66
2022/02/15 01:20:24;;;;;;;34.72;19.95;;;;;;;0.40;72.96;95189.72;5064646;28;20029;-67
2022/02/15 01:22:50;;;;;;;33.38;18.45;;;;;;;0.41;73.39;95181.97;5069072;28;20035;-66
2022/02/15 01:25:15;;;;;;;31.83;19.00;;;;;;;0.43;72.88;95199.81;5079791;28;20413;-66
2022/02/15 01:27:41;;;;;;;34.83;20.17;;;;;;;0.30;73.33;95189.22;5073422;28;20419;-66
2022/02/15 01:30:07;;;;;;;38.88;19.98;;;;;;;0.26;74.04;95191.94;5086332;28;20031;-66
2022/02/15 01:32:32;;;;;;;31.73;18.38;;;;;;;0.18;74.03;95182.84;5086648;28;20390;-66
2022/02/15 01:34:58;;;;;;;36.00;20.08;;;;;;;0.06;74.11;95178.19;5072128;28;20032;-66
2022/02/15 01:37:23;;;;;;;41.65;22.52;;;;;;;0.08;74.31;95188.31;5072337;28;20028;-66
2022/02/15 01:39:49;;;;;;;36.15;19.25;;;;;;;0.13;73.26;95171.94;5087193;28;20028;-65
2022/02/15 01:42:18;;;;;;;37.30;20.75;;;;;;;0.10;73.97;95166.13;5089249;28;20032;-66
2022/02/15 01:44:43;;;;;;;41.67;21.67;;;;;;;0.01;74.46;95166.47;5072830;28;20040;-66
2022/02/15 01:47:09;;;;;;;42.55;21.95;;;;;;;0.04;74.41;95168.91;5084483;28;20025;-67
2022/02/15 01:49:34;;;;;;;39.00;20.30;;;;;;;0.04;73.96;95163.78;5069487;28;20084;-66
2022/02/15 01:52:00;;;;;;;41.97;23.80;;;;;;;0.00;73.72;95170.75;5078347;28;20086;-66
2022/02/15 01:54:25;;;;;;;45.33;25.23;;;;;;;-0.04;73.84;95181.94;5087499;28;20082;-66
2022/02/15 01:56:50;;;;;;;45.80;24.65;;;;;;;-0.14;74.19;95183.13;5056354;28;20035;-66
2022/02/15 01:59:16;;;;;;;51.10;27.90;;;;;;;-0.15;73.69;95173.81;5080662;28;20039;-66
2022/02/15 02:01:41;;;;;;;59.00;28.63;;;;;;;-0.21;73.96;95181.72;5070544;28;20074;-66
2022/02/15 02:05:47;;;;;;;55.90;28.20;;;;;;;-0.25;73.40;95175.88;5069320;28;20029;-66
2022/02/15 02:06:52;;;;;;;45.20;24.00;;;;;;;-0.26;73.90;95159.69;5086903;28;20028;-66
2022/02/15 02:09:17;;;;;;;50.53;25.00;;;;;;;-0.36;75.50;95172.84;5079831;28;20533;-66
2022/02/15 02:11:43;;;;;;;43.83;23.65;;;;;;;-0.32;75.56;95176.97;5068859;28;20504;-66
2022/02/15 02:14:08;;;;;;;41.08;22.38;;;;;;;-0.36;75.12;95137.94;5069391;28;20031;-66
2022/02/15 02:16:34;;;;;;;37.05;22.33;;;;;;;-0.26;74.84;95171.66;5074232;28;20056;-66
2022/02/15 02:19:00;;;;;;;41.60;21.88;;;;;;;-0.28;74.53;95171.72;5079274;28;20025;-66
2022/02/15 02:21:38;;;;;;;40.80;22.40;;;;;;;-0.37;74.97;95176.28;5070450;28;20044;-66
2022/02/15 02:24:04;;;;;;;45.28;22.85;;;;;;;-0.40;75.10;95176.41;5063129;28;20067;-66
2022/02/15 02:26:29;;;;;;;53.08;26.60;;;;;;;-0.35;75.44;95183.00;5083040;28;20127;-66
2022/02/15 02:28:55;;;;;;;51.90;25.35;;;;;;;-0.30;75.28;95180.31;5078450;28;20028;-66
2022/02/15 02:31:20;;;;;;;44.15;24.35;;;;;;;-0.43;75.48;95171.41;5090748;28;20082;-66
2022/02/15 02:33:46;;;;;;;44.63;22.75;;;;;;;-0.35;74.56;95170.25;5089185;28;20441;-66
2022/02/15 02:36:11;;;;;;;43.28;22.65;;;;;;;-0.42;73.94;95175.59;5089252;28;20502;-66
2022/02/15 02:38:37;;;;;;;43.38;23.65;;;;;;;-0.52;74.19;95191.25;5090074;28;20035;-66
2022/02/15 02:41:02;;;;;;;42.25;22.55;;;;;;;-0.52;73.80;95183.59;5089128;28;20039;-66
2022/02/15 02:43:28;;;;;;;43.03;22.83;;;;;;;-0.62;73.29;95194.16;5078871;28;20036;-66
2022/02/15 02:45:53;;;;;;;51.78;25.13;;;;;;;-0.68;73.53;95203.66;5070531;28;20319;-66
2022/02/15 02:48:19;;;;;;;51.28;24.45;;;;;;;-0.70;73.48;95209.69;5064422;28;20121;-66
2022/02/15 02:50:44;;;;;;;47.03;24.40;;;;;;;-0.72;73.82;95204.66;5071571;28;20033;-66
2022/02/15 02:53:11;;;;;;;47.83;25.10;;;;;;;-0.68;73.34;95208.78;5068926;28;20029;-66
2022/02/15 02:55:37;;;;;;;49.42;25.85;;;;;;;-0.69;73.20;95208.84;5070404;28;20032;-66
2022/02/15 02:58:02;;;;;;;46.95;25.08;;;;;;;-0.75;73.42;95214.16;5070189;28;20028;-66
2022/02/15 03:00:28;;;;;;;38.08;22.05;;;;;;;-0.77;73.74;95214.19;5068845;28;20056;-66
2022/02/15 03:02:53;;;;;;;41.13;21.35;;;;;;;-0.86;73.71;95206.84;5087853;28;20046;-66
2022/02/15 03:05:18;;;;;;;39.60;21.60;;;;;;;-0.70;74.21;95215.66;5082239;28;20037;-66
2022/02/15 03:07:44;;;;;;;36.83;20.05;;;;;;;-0.67;74.58;95235.13;5070128;28;20047;-66
2022/02/15 03:10:09;;;;;;;36.22;20.15;;;;;;;-0.66;74.48;95221.50;5052302;28;20098;-66
2022/02/15 03:12:35;;;;;;;34.30;20.05;;;;;;;-0.58;74.79;95229.75;5070805;28;20086;-66
2022/02/15 03:15:00;;;;;;;40.25;20.17;;;;;;;-0.52;74.33;95231.25;5073579;28;20517;-66
2022/02/15 03:17:26;;;;;;;42.15;22.00;;;;;;;-0.51;74.68;95238.00;5084499;28;20489;-66
2022/02/15 03:19:51;;;;;;;36.80;20.05;;;;;;;-0.51;74.72;95235.47;5090307;28;20032;-66
2022/02/15 03:22:18;;;;;;;43.92;23.23;;;;;;;-0.54;74.65;95233.00;5066237;28;20028;-67
2022/02/15 03:24:44;;;;;;;40.50;22.10;;;;;;;-0.58;74.86;95234.84;5070211;28;20555;-65
2022/02/15 03:27:10;;;;;;;44.50;23.95;;;;;;;-0.62;75.48;95220.50;5080949;28;20024;-67
2022/02/15 03:29:35;;;;;;;42.35;23.05;;;;;;;-0.58;75.34;95219.53;5092192;28;20036;-66
2022/02/15 03:32:01;;;;;;;40.97;23.05;;;;;;;-0.50;75.34;95235.44;5086337;28;20035;-66
2022/02/15 03:34:26;;;;;;;41.20;22.65;;;;;;;-0.38;75.04;95246.94;5086608;28;20028;-66
2022/02/15 03:36:51;;;;;;;38.97;21.33;;;;;;;-0.38;75.03;95252.06;5063982;28;20029;-66
2022/02/15 03:39:17;;;;;;;37.53;21.65;;;;;;;-0.37;74.81;95247.78;5084470;28;20044;-66
2022/02/15 03:44:26;;;;;;;40.75;21.95;;;;;;;-0.36;74.17;95244.31;5089217;28;20059;-66
2022/02/15 03:46:52;;;;;;;42.00;23.08;;;;;;;-0.33;73.76;95249.34;5083672;28;20489;-66
2022/02/15 03:49:17;;;;;;;37.30;20.67;;;;;;;-0.32;73.59;95245.91;5082556;28;20032;-66
2022/02/15 03:51:43;;;;;;;58.45;30.52;;;;;;;-0.53;75.11;95242.31;5085961;28;20120;-66
2022/02/15 03:54:08;;;;;;;54.97;30.00;;;;;;;-0.71;76.49;95234.38;5083213;28;20039;-66
2022/02/15 03:56:34;;;;;;;50.70;26.33;;;;;;;-0.72;76.60;95242.13;5082536;28;20114;-66
2022/02/15 03:59:00;;;;;;;43.58;24.08;;;;;;;-0.76;76.27;95228.59;5083236;28;20032;-66
2022/02/15 04:01:26;;;;;;;46.17;24.23;;;;;;;-0.63;76.01;95246.91;5081431;28;20068;-66
2022/02/15 04:03:51;;;;;;;56.05;28.73;;;;;;;-0.67;75.71;95247.88;5088029;28;20081;-66
2022/02/15 04:06:17;;;;;;;56.03;26.40;;;;;;;-0.64;74.95;95249.50;5084548;28;20078;-65
2022/02/15 04:08:42;;;;;;;46.60;24.73;;;;;;;-0.63;75.18;95251.19;5086219;28;20027;-66
2022/02/15 04:11:08;;;;;;;48.70;25.60;;;;;;;-0.68;74.70;95230.91;5086932;28;20413;-66
2022/02/15 04:13:33;;;;;;;48.33;24.98;;;;;;;-0.64;74.49;95236.75;5084205;28;20512;-66
2022/02/15 04:15:58;;;;;;;44.80;24.15;;;;;;;-0.63;74.86;95236.72;5084120;28;20055;-66
2022/02/15 04:18:24;;;;;;;41.28;24.38;;;;;;;-0.68;74.41;95234.28;5049923;28;20028;-66
2022/02/15 04:20:50;;;;;;;44.92;22.13;;;;;;;-0.65;74.92;95223.16;5081629;28;20047;-66
2022/02/15 04:23:15;;;;;;;41.65;22.83;;;;;;;-0.60;75.17;95225.56;5084091;28;20036;-66
2022/02/15 04:25:41;;;;;;;37.92;22.08;;;;;;;-0.58;74.96;95228.91;5084323;28;20036;-66
2022/02/15 04:28:06;;;;;;;49.47;28.05;;;;;;;-0.55;74.74;95228.81;5087796;28;20034;-66
2022/02/15 04:30:31;;;;;;;46.13;24.25;;;;;;;-0.50;74.78;95232.88;5084223;28;20036;-65
2022/02/15 04:32:57;;;;;;;43.92;23.42;;;;;;;-0.39;75.10;95239.31;5084295;28;20031;-66
2022/02/15 04:35:22;;;;;;;42.58;22.45;;;;;;;-0.41;74.95;95229.19;5083798;28;20032;-66
2022/02/15 04:37:48;;;;;;;36.35;21.17;;;;;;;-0.39;74.43;95241.88;5067012;28;20511;-66
2022/02/15 04:40:13;;;;;;;39.92;20.90;;;;;;;-0.31;74.95;95229.69;5081780;28;20029;-66
2022/02/15 04:42:38;;;;;;;37.55;21.67;;;;;;;-0.23;74.54;95235.38;5068229;28;20094;-66
2022/02/15 04:45:04;;;;;;;36.15;19.55;;;;;;;-0.19;74.26;95236.94;5085741;28;20038;-66
2022/02/15 04:47:30;;;;;;;41.47;22.17;;;;;;;-0.22;74.47;95231.94;5086041;28;20067;-66
2022/02/15 04:49:55;;;;;;;133.95;57.22;;;;;;;-0.15;74.43;95233.38;5085779;28;21220;-66
2022/02/15 04:52:21;;;;;;;125.22;51.30;;;;;;;-0.20;73.89;95235.25;5085782;28;20036;-66
2022/02/15 04:54:46;;;;;;;121.97;51.17;;;;;;;-0.26;73.45;95241.41;5084359;28;20419;-66
2022/02/15 04:57:11;;;;;;;105.38;49.95;;;;;;;-0.25;73.62;95247.38;5087326;28;20424;-66
2022/02/15 04:59:37;;;;;;;100.25;47.92;;;;;;;-0.44;73.10;95221.63;5078544;28;20415;-66
2022/02/15 05:02:02;;;;;;;74.47;37.92;;;;;;;-0.27;73.10;95244.88;5086946;28;20024;-66
2022/02/15 05:07:12;;;;;;;66.68;34.50;;;;;;;-0.34;72.38;95260.44;5085662;28;20474;-66
2022/02/15 05:09:37;;;;;;;62.80;34.20;;;;;;;-0.35;72.85;95264.72;5083431;28;20036;-66
2022/02/15 05:12:03;;;;;;;64.47;34.97;;;;;;;-0.46;72.89;95270.16;5084485;28;20081;-66
2022/02/15 05:14:28;;;;;;;76.05;37.35;;;;;;;-0.51;72.56;95271.19;5083395;28;20033;-66
2022/02/15 05:16:54;;;;;;;65.88;33.92;;;;;;;-0.58;72.99;95255.25;5081782;28;20047;-66
2022/02/15 05:19:19;;;;;;;70.15;35.65;;;;;;;-0.63;72.52;95264.78;5082752;28;20429;-65
2022/02/15 05:21:45;;;;;;;93.32;39.78;;;;;;;-0.66;72.89;95252.13;5084393;28;20051;-67
2022/02/15 05:24:10;;;;;;;94.82;40.22;;;;;;;-0.70;74.00;95250.53;5085810;28;20032;-66
2022/02/15 05:26:36;;;;;;;92.97;40.08;;;;;;;-0.70;74.71;95243.72;5085183;28;20105;-66
2022/02/15 05:29:01;;;;;;;104.10;42.22;;;;;;;-0.67;74.93;95250.44;5077915;28;20410;-65
2022/02/15 05:31:27;;;;;;;103.57;43.10;;;;;;;-0.70;75.60;95259.03;5058039;28;20044;-65
2022/02/15 05:33:52;;;;;;;112.50;43.88;;;;;;;-0.72;76.35;95259.97;5067942;28;20036;-66
2022/02/15 05:36:18;;;;;;;111.25;43.13;;;;;;;-0.81;76.40;95263.63;5077540;28;20024;-66
2022/02/15 05:38:43;;;;;;;98.18;43.03;;;;;;;-0.72;76.91;95267.63;5067743;28;20036;-66
2022/02/15 05:41:09;;;;;;;111.93;42.20;;;;;;;-0.85;76.92;95263.78;5087085;28;20036;-65
2022/02/15 05:43:34;;;;;;;106.10;43.55;;;;;;;-1.00;77.63;95258.28;5090345;28;20417;-66
2022/02/15 05:46:00;;;;;;;119.32;46.85;;;;;;;-0.98;77.80;95274.34;5089532;28;20047;-66
2022/02/15 05:48:25;;;;;;;129.73;50.58;;;;;;;-1.05;78.60;95283.09;5088265;28;20301;-65
2022/02/15 05:50:51;;;;;;;134.65;52.28;;;;;;;-1.08;78.70;95288.28;5089660;28;20039;-66
2022/02/15 05:53:21;;;;;;;131.18;49.63;;;;;;;-1.10;78.79;95290.03;5089418;28;20060;-66
2022/02/15 05:55:48;;;;;;;126.10;47.92;;;;;;;-1.11;78.73;95296.03;5074093;28;20037;-66
2022/02/15 05:58:14;;;;;;;117.55;45.83;;;;;;;-1.06;78.71;95300.97;5071600;28;20074;-66
2022/02/15 06:00:39;;;;;;;124.82;45.70;;;;;;;-1.04;78.51;95304.31;5085085;28;20028;-66
2022/02/15 06:04:09;;;;;;;108.95;44.38;;;;;;;-1.02;78.35;95300.84;5060143;28;20028;-66
2022/02/15 06:05:50;;;;;;;103.25;42.75;;;;;;;-0.98;78.58;95304.94;5070869;28;20119;-66
2022/02/15 06:08:16;;;;;;;116.65;48.75;;;;;;;-0.87;77.64;95288.50;5070727;28;20041;-66
2022/02/15 06:10:41;;;;;;;113.05;48.45;;;;;;;-0.87;77.26;95299.53;5070988;28;20036;-66
2022/02/15 06:13:06;;;;;;;109.07;46.05;;;;;;;-0.84;77.63;95313.91;5070771;28;20025;-66
2022/02/15 06:15:32;;;;;;;127.75;51.08;;;;;;;-0.78;77.45;95308.63;5070520;28;20044;-66
2022/02/15 06:17:57;;;;;;;134.77;55.42;;;;;;;-0.68;77.50;95315.13;5069508;28;20462;-66
2022/02/15 06:20:23;;;;;;;130.70;52.75;;;;;;;-0.56;77.15;95308.78;5070245;28;20624;-66
2022/02/15 06:22:48;;;;;;;143.30;58.63;;;;;;;-0.60;77.40;95315.72;5070713;28;20031;-66
2022/02/15 06:25:14;;;;;;;141.93;58.45;;;;;;;-0.57;77.54;95314.78;5070668;28;20033;-66
2022/02/15 06:27:39;;;;;;;143.05;57.63;;;;;;;-0.48;77.32;95322.16;5069299;28;20020;-66
2022/02/15 06:30:05;;;;;;;133.48;56.75;;;;;;;-0.40;77.01;95319.34;5077703;28;20032;-67
2022/02/15 06:32:30;;;;;;;135.00;55.33;;;;;;;-0.36;76.66;95316.66;5082502;28;20119;-66
2022/02/15 06:34:56;;;;;;;125.57;55.55;;;;;;;-0.38;76.50;95305.66;5089457;28;20429;-66
2022/02/15 06:37:22;;;;;;;125.53;52.40;;;;;;;-0.26;76.51;95312.91;5090632;28;20470;-67
2022/02/15 06:39:48;;;;;;;138.43;59.67;;;;;;;-0.22;76.50;95316.22;5090717;28;20047;-66
2022/02/15 06:42:13;;;;;;;145.77;65.13;;;;;;;-0.16;76.39;95318.56;5089097;28;20028;-66
2022/02/15 06:44:39;;;;;;;135.15;60.40;;;;;;;-0.07;76.50;95328.47;5070410;28;20036;-66
2022/02/15 06:47:04;;;;;;;129.70;58.97;;;;;;;0.05;76.27;95317.00;5070366;28;20039;-67
2022/02/15 06:49:30;;;;;;;125.95;57.83;;;;;;;0.04;76.26;95310.25;5077721;28;20059;-65
2022/02/15 06:51:55;;;;;;;131.57;58.75;;;;;;;0.16;75.75;95321.75;5071181;28;20072;-65
2022/02/15 06:54:20;;;;;;;134.07;59.50;;;;;;;0.26;75.92;95322.28;5083896;28;20031;-65
2022/02/15 06:56:46;;;;;;;103.28;47.45;;;;;;;0.37;75.70;95325.31;5082999;28;20033;-66
2022/02/15 06:59:13;;;;;;;114.97;53.35;;;;;;;0.44;74.74;95330.13;5075174;28;20035;-69
2022/02/15 07:01:40;;;;;;;117.90;51.20;;;;;;;0.57;75.01;95335.66;5085900;28;20451;-65
2022/02/15 07:04:06;;;;;;;75.47;37.63;;;;;;;0.68;73.46;95325.06;5081924;28;20502;-67
2022/02/15 07:06:32;;;;;;;81.15;40.20;;;;;;;0.87;73.31;95327.78;5080377;28;20031;-65
2022/02/15 07:08:57;;;;;;;86.65;39.15;;;;;;;1.08;73.01;95318.44;5084004;28;20042;-66
2022/02/15 07:11:22;;;;;;;69.45;36.53;;;;;;;1.22;71.93;95323.88;5072627;28;20063;-65
2022/02/15 07:13:50;;;;;;;69.72;35.88;;;;;;;1.28;71.62;95330.50;5079189;28;20460;-65
2022/02/15 07:16:16;;;;;;;74.45;38.20;;;;;;;1.47;71.50;95322.94;5089157;28;20040;-66
2022/02/15 07:18:43;;;;;;;85.28;41.28;;;;;;;1.85;69.88;95323.97;5077663;28;20426;-67
2022/02/15 07:21:08;;;;;;;84.68;42.42;;;;;;;2.21;69.10;95324.19;5089012;28;20504;-66
2022/02/15 07:23:34;;;;;;;84.63;42.40;;;;;;;2.59;68.08;95334.56;5080267;28;20066;-69
2022/02/15 07:25:59;;;;;;;98.07;47.97;;;;;;;2.81;67.45;95331.88;5090749;28;20040;-66
2022/02/15 07:28:25;;;;;;;103.45;48.53;;;;;;;2.78;66.25;95310.66;5093812;28;20044;-67
2022/02/15 07:30:50;;;;;;;93.93;46.42;;;;;;;3.00;65.86;95321.63;5090602;28;20410;-66
2022/02/15 07:33:16;;;;;;;105.80;50.05;;;;;;;3.21;65.59;95321.56;5092406;28;20035;-66
2022/02/15 07:35:41;;;;;;;106.95;50.40;;;;;;;3.31;64.41;95318.47;5092533;28;20496;-66
2022/02/15 07:38:06;;;;;;;107.03;52.22;;;;;;;3.48;64.09;95312.59;5093679;28;20106;-66
2022/02/15 07:40:32;;;;;;;97.10;51.30;;;;;;;3.72;63.38;95314.88;5093770;28;20477;-66
2022/02/15 07:42:57;;;;;;;109.85;52.42;;;;;;;3.91;63.37;95323.38;5092331;28;20482;-66
2022/02/15 07:45:23;;;;;;;98.70;50.20;;;;;;;4.20;61.92;95327.06;5093556;28;20039;-66
2022/02/15 07:47:49;;;;;;;93.50;46.80;;;;;;;4.41;60.74;95321.78;5093397;28;20028;-66
2022/02/15 07:50:15;;;;;;;93.03;46.40;;;;;;;4.66;60.35;95323.94;5093501;28;20032;-66
2022/02/15 07:52:41;;;;;;;101.28;52.03;;;;;;;5.00;59.91;95329.91;5092469;28;20028;-67
2022/02/15 07:55:07;;;;;;;83.03;44.17;;;;;;;5.36;58.63;95320.19;5075140;28;20466;-66
2022/02/15 07:57:32;;;;;;;63.13;36.17;;;;;;;5.77;56.68;95318.84;5092223;28;20070;-67
2022/02/15 07:59:57;;;;;;;45.67;28.13;;;;;;;5.92;54.76;95306.81;5092926;28;20063;-67
2022/02/15 08:02:23;;;;;;;53.55;29.83;;;;;;;6.22;55.05;95299.94;5091995;28;20036;-67
2022/02/15 08:04:48;;;;;;;55.72;30.67;;;;;;;6.45;54.08;95300.34;5074881;28;20410;-67
2022/02/15 08:07:14;;;;;;;57.78;32.75;;;;;;;6.21;54.60;95306.03;5091769;28;20051;-67
2022/02/15 08:09:39;;;;;;;50.92;30.15;;;;;;;5.79;54.95;95314.41;5074800;28;20448;-67
2022/02/15 08:12:09;;;;;;;58.72;33.00;;;;;;;5.44;56.46;95311.22;5091766;28;20020;-67
2022/02/15 08:14:37;;;;;;;50.58;28.95;;;;;;;5.81;55.80;95321.16;5091615;28;20038;-67
2022/02/15 08:17:03;;;;;;;54.45;31.98;;;;;;;6.12;55.61;95316.88;5092832;28;20125;-67
2022/02/15 08:19:29;;;;;;;52.42;31.95;;;;;;;6.16;55.32;95320.94;5092913;28;20036;-67
2022/02/15 08:21:56;;;;;;;56.47;33.13;;;;;;;5.82;56.53;95327.13;5091605;28;20032;-68
2022/02/15 08:24:22;;;;;;;60.28;34.88;;;;;;;5.68;56.31;95324.50;5091515;28;20489;-69
2022/02/15 08:26:48;;;;;;;61.60;34.33;;;;;;;5.59;56.69;95325.84;5091282;28;20028;-70
2022/02/15 08:29:13;;;;;;;62.13;35.15;;;;;;;5.56;56.88;95324.25;5092592;28;20028;-68
2022/02/15 08:31:39;;;;;;;63.10;36.13;;;;;;;5.41;57.69;95319.13;5091285;28;20024;-68
2022/02/15 08:34:04;;;;;;;65.22;35.50;;;;;;;5.21;58.37;95321.03;5074361;28;20430;-68
2022/02/15 08:36:30;;;;;;;65.65;35.47;;;;;;;5.13;58.69;95323.19;5092338;28;20028;-68
2022/02/15 08:38:55;;;;;;;60.55;34.05;;;;;;;5.06;58.57;95316.69;5091245;28;20024;-68
2022/02/15 08:41:20;;;;;;;60.17;33.17;;;;;;;4.95;59.04;95308.69;5074412;28;20040;-67
2022/02/15 08:43:46;;;;;;;62.35;35.85;;;;;;;4.98;59.44;95306.78;5091177;28;20040;-68
2022/02/15 08:46:11;;;;;;;64.13;35.22;;;;;;;4.91;59.83;95293.41;5091215;28;20032;-67
2022/02/15 08:48:37;;;;;;;67.00;36.83;;;;;;;4.84;59.53;95299.78;5092212;28;20477;-68
2022/02/15 08:51:02;;;;;;;65.70;36.45;;;;;;;4.81;59.98;95296.56;5091029;28;20032;-68
2022/02/15 08:53:27;;;;;;;63.28;35.95;;;;;;;4.80;60.24;95305.19;5090965;28;20078;-67
2022/02/15 08:55:54;;;;;;;65.35;37.35;;;;;;;4.81;61.01;95306.84;5091011;28;20024;-68
2022/02/15 08:58:19;;;;;;;66.63;35.55;;;;;;;4.88;60.28;95305.63;5092032;28;20025;-68
2022/02/15 09:00:45;;;;;;;65.10;35.92;;;;;;;4.78;59.81;95297.53;5074025;28;20039;-68
2022/02/15 09:03:10;;;;;;;87.53;46.75;;;;;;;4.84;61.00;95299.78;5090678;28;20039;-68
2022/02/15 09:05:36;;;;;;;85.55;47.03;;;;;;;4.94;61.92;95302.72;5090622;28;20035;-68
2022/02/15 09:08:01;;;;;;;95.50;50.10;;;;;;;5.15;61.91;95300.72;5090730;28;20086;-67
2022/02/15 09:10:26;;;;;;;91.03;45.17;;;;;;;5.12;61.25;95295.75;5091358;28;20032;-68
2022/02/15 09:12:52;;;;;;;80.82;41.58;;;;;;;5.17;60.89;95292.94;5090575;28;20028;-68
2022/02/15 09:15:17;;;;;;;81.18;40.58;;;;;;;5.21;60.32;95291.84;5090368;28;20499;-68
2022/02/15 09:17:43;;;;;;;48.00;26.85;;;;;;;5.06;58.78;95290.94;5073638;28;20028;-68
2022/02/15 09:20:12;;;;;;;41.22;24.20;;;;;;;4.99;59.41;95305.06;5073609;28;20524;-68
2022/02/15 09:22:38;;;;;;;40.58;24.63;;;;;;;5.07;59.77;95295.16;5090437;28;20552;-68
2022/02/15 09:25:04;;;;;;;47.47;27.15;;;;;;;5.10;58.90;95300.19;5073545;28;20028;-68
2022/02/15 09:27:30;;;;;;;52.00;28.33;;;;;;;5.14;59.56;95291.34;5091532;28;20466;-68
2022/02/15 09:29:55;;;;;;;53.97;31.00;;;;;;;5.10;58.95;95290.69;5091711;28;20109;-68
2022/02/15 09:32:21;;;;;;;55.38;30.35;;;;;;;5.20;59.62;95279.88;5090246;28;20439;-68
2022/02/15 09:34:46;;;;;;;59.10;32.00;;;;;;;5.26;59.56;95275.22;5090060;28;20036;-67
2022/02/15 09:37:11;;;;;;;47.95;26.20;;;;;;;5.35;58.47;95268.75;5073285;28;20024;-68
2022/02/15 09:39:37;;;;;;;55.65;30.33;;;;;;;5.47;58.85;95275.81;5090029;28;20123;-68
2022/02/15 09:42:03;;;;;;;56.72;32.90;;;;;;;5.58;59.61;95272.63;5091339;28;20024;-68
2022/02/15 09:44:28;;;;;;;55.42;31.58;;;;;;;5.66;58.14;95270.47;5089921;28;20036;-68
2022/02/15 09:46:54;;;;;;;59.20;31.65;;;;;;;5.72;57.80;95253.81;5073054;28;20039;-68
2022/02/15 09:52:03;;;;;;;57.67;32.63;;;;;;;5.97;57.83;95261.84;5090191;28;20114;-67
2022/02/15 09:54:30;;;;;;;53.22;29.20;;;;;;;6.04;56.83;95249.41;5091346;28;20123;-68
2022/02/15 09:56:55;;;;;;;56.08;31.63;;;;;;;6.10;57.25;95254.22;5091113;28;20020;-68
2022/02/15 09:59:21;;;;;;;49.72;27.58;;;;;;;6.14;56.17;95249.72;5089828;28;20031;-67
2022/02/15 10:01:46;;;;;;;52.03;29.13;;;;;;;6.12;55.44;95242.06;5072964;28;20024;-68
2022/02/15 10:04:12;;;;;;;52.72;29.83;;;;;;;6.15;56.42;95238.47;5089764;28;20027;-68
2022/02/15 10:06:40;;;;;;;53.85;30.50;;;;;;;6.25;56.83;95232.69;5091048;28;20181;-68
2022/02/15 10:09:06;;;;;;;53.03;29.70;;;;;;;6.36;56.59;95232.06;5073214;28;20028;-68
2022/02/15 10:11:39;;;;;;;57.28;27.40;;;;;;;6.40;55.23;95224.94;5072862;28;20460;-68
2022/02/15 10:14:04;;;;;;;53.05;28.75;;;;;;;6.45;55.60;95207.44;5089580;28;20032;-68
2022/02/15 10:16:33;;;;;;;40.03;22.98;;;;;;;6.60;54.24;95219.44;5072861;28;20109;-68
2022/02/15 10:18:59;;;;;;;37.15;22.38;;;;;;;6.50;54.23;95208.00;5089643;28;20490;-68
2022/02/15 10:21:32;;;;;;;45.40;25.58;;;;;;;6.44;55.09;95203.22;5090323;28;20028;-68
2022/02/15 10:23:58;;;;;;;54.58;29.38;;;;;;;6.47;55.89;95203.03;5077040;28;20417;-69
2022/02/15 10:26:25;;;;;;;48.67;26.55;;;;;;;6.52;56.27;95207.88;5095314;28;20043;-68
2022/02/15 10:28:50;;;;;;;41.92;24.90;;;;;;;6.61;55.45;95208.19;5094956;28;20028;-68
2022/02/15 10:31:15;;;;;;;48.65;27.65;;;;;;;6.63;56.02;95201.16;5095241;28;20473;-68
2022/02/15 10:33:45;;;;;;;43.03;22.98;;;;;;;6.64;54.28;95197.66;5093653;28;20028;-68
2022/02/15 10:36:12;;;;;;;50.28;27.30;;;;;;;6.67;55.19;95202.63;5093776;28;20032;-68
2022/02/15 10:38:49;;;;;;;47.75;26.05;;;;;;;6.76;54.79;95205.56;5059963;28;20028;-69
2022/02/15 10:41:16;;;;;;;47.45;27.52;;;;;;;6.82;55.07;95195.69;5060419;28;20418;-68
2022/02/15 10:43:47;;;;;;;44.95;25.30;;;;;;;6.90;53.99;95177.97;5076679;28;20031;-68
2022/02/15 10:46:23;;;;;;;36.07;21.47;;;;;;;6.99;53.04;95181.72;5093370;28;20494;-68
2022/02/15 10:48:48;;;;;;;45.60;22.75;;;;;;;7.18;53.04;95183.16;5077860;28;20093;-68
2022/02/15 10:51:14;;;;;;;40.50;22.90;;;;;;;7.21;53.03;95178.59;5093479;28;20509;-68
2022/02/15 10:53:39;;;;;;;44.97;25.33;;;;;;;7.36;53.40;95180.22;5094391;28;20020;-70
2022/02/15 10:56:05;;;;;;;40.85;23.52;;;;;;;7.28;52.62;95176.47;5094726;28;20111;-68
2022/02/15 10:58:31;;;;;;;44.20;22.90;;;;;;;7.20;52.69;95173.56;5076306;28;20086;-68
2022/02/15 11:00:58;;;;;;;39.78;21.90;;;;;;;7.18;52.52;95162.47;5094688;28;20043;-68
2022/02/15 11:03:24;;;;;;;37.30;22.00;;;;;;;7.12;52.65;95156.78;5093060;28;20443;-69
2022/02/15 11:05:49;;;;;;;38.70;22.52;;;;;;;7.21;52.81;95159.69;5076180;28;20043;-68
2022/02/15 11:08:16;;;;;;;38.45;21.83;;;;;;;7.27;52.39;95149.81;5094217;28;20515;-68
2022/02/15 11:11:06;;;;;;;39.97;22.33;;;;;;;7.40;51.96;95155.00;5075890;28;20509;-68
2022/02/15 11:13:35;;;;;;;44.45;21.80;;;;;;;7.43;51.64;95147.03;5094067;28;20028;-68
2022/02/15 11:16:03;;;;;;;32.15;20.42;;;;;;;7.41;51.83;95143.75;5092870;28;20098;-68
2022/02/15 11:18:30;;;;;;;34.17;20.90;;;;;;;7.49;51.60;95136.28;5059705;28;20413;-69
2022/02/15 11:20:56;;;;;;;37.38;21.23;;;;;;;7.56;52.02;95124.63;5094266;28;20093;-68